Timeline UpdatesTrip UpdatesNews PostsPvt PostsTravel TipsAdmin PostsConv PostsFollowed PostsChat RequestsBlog PostsPNR Posts

Disclaimer
Search
 
 
Fri Apr 18, 2014 05:47:11 ISTHomeTrainsΣChainsAtlasPNRForumGalleryNewsFAQTripsMembersLoginFeedback
No Recent News for this Train
Other Trains in the News **new
Latest...
Additional Stoppage for Train No. 16381 / 16382 Mumbai CST – Kanyakumari – Mumbai CST Express with effect from 10th October, 2013 at Yadgir Station o­n Wadi - Raichur section o­n an experimental basis for a period of six months.
Mon Oct 07, 2013 (06:42PM)
⇐ Return Journey: Train# 16381

16382/Jayanti Janta Express

Oct 07 2013 (10:53PM)
Change Departure Station:
Change Arrival Station:
Post a Train Travel TipPost a Train Travel Tip **new
Post a Comment/Question/Picture/VideoPost a Comment/Question/Picture/Video
Pantry/Catering
✓ Pantry Car Avbl
✓ Catering Avbl
RSA - Rake Sharing
Rake/Coach Composition
CC : SLR- UR- S1- S2- S3- S4- PC- S5- S6- S7- S8- S9- S10- B1- A1- UR- SLRD = 17 Coaches.; jayarajcharan Entry# 674599 ; .; S9 & S10 De-reserved from CAPE to CBE,;
Loco
CAPE-GTL: RPM/ED WAP4 / AJJ WAM-4 / WAP-1 GTL-PUNE: GY WDM...
Read more...
3A/3D/WDG-3A PUNE-CSTM: KYN WCAM 2P /3
News    PNR    Forum    Time-Table    Availability    Fare Chart    Map    Arr/Dep History    Trips    Gallery    ΣChains    X/O    Timeline    
Travel Time: 8h 30m    9 halts    Distance: 455 km    Avg Speed: 53 km/hr
Type: Mail/Express
Zone: SR/Southern
Departs @ 20:20 (Avg 40m late)
Platform# 4
SMTWTFS
Solapur/SUR 
Arrives @ 04:50 +1 night (Avg 13m late)
Platform# 11
SMTWTFS
Mumbai CST/CSTM 

9 halts. 95 intermediate Stations between Solapur and Mumbai CST

Show ALL intermediate Stations  Show Old Time-Table

#CodeStation NameX/OArrivesAvgDepartsAvgHaltPFDay#KmSpeedElevZoneAddress
1CAPEKanniyakumari (3)  -05:45+911-1678.74738mSRKanyakumari, Tamil Nadu
2NCJNagercoil Junction (3)  06:05+906:10+105m11-1663.15822mSRNagercoil-629002, Tamil Nadu
3ERLEraniel  06:29+1106:30+121m--1-1644.96419mSRKanyakumari, Tamil Nadu
4KZTKulitturai  06:44+1306:45+141m--1-1630.17429mSRMarthandam, Tamil Nadu
5PASAParassala  06:53+1706:54+171m--1-1620.23345mSRParassala, Kerala
6NYYNeyyattinkaraX  07:14+1207:15+231m--1-1609.32611mSRThiruvananthapuram, Kerala
7TVCTrivandrum Central (5)  07:55+908:05+910m21-1592.18212mSRPh: 0471-2321622, Kerala
8CRYChirayinkeezhu (2)X  08:26+1608:27+161m--1-1563.34619mSRChirayinkeezhu, Kerala
9KVUKadakavur (3)  08:31+1608:32+171m--1-1560.35020mSRKadakkavoor, Kerala
10VAKVarkala Sivagiri (3)X  08:43+1708:44+181m--1-1551.16152mSREdava Kappil Road, Kerala
11PVUParavur (3)X  08:55+2008:56+211m--1-1539.93118mSRParavoor, Kerala
12QLNKollam Junction (6)X  09:20+1609:25+165m21-1527.58616mSRKollam 0474-2746194, Kerala
13KPYKarunagappalli (2)  09:44+2309:45+241m11-1500.44612mSRKollam Dist, Kerala
14KYJKayamkulam Junction (5)  10:03+2210:05+252m--1-1486.75111mSRAlappuzha Ph;0479-2442042, Kerala
15MVLKMavelikara (3)X  10:14+2710:15+331m21-1479.03113mSRMavelikkara Ph: 0479-2302249, Kerala
16CNGRChengannur (3)OO  10:39+2210:40+261m--1-1466.4606mSRPh: 0479-2452340, Kerala
17TRVLTiruvalla (2)O  10:49+3110:50+351m21-1457.45227mSRPh: 0469-2601314, Kerala
18CGYChanganassery (3)XO  10:59+3711:00+441m--1-1449.52411mSRPh: 0481- 2420108, Kerala
19KTYMKottayam (3)X  11:45+3211:50+375m11-1431.73815mSRTel: 0481 2563535, Kerala
20ERNErnakulam Town (North) (2)X  13:25+2113:30+245m11-1371.7489mSRTel: 0484 2395198, Kerala
21AWYAluva (3)X  13:51+2213:53+242m--1-1354.95012mSRPh: 0484-2624141, Kerala
22AFKAngamaly for Kalady (3)  14:04+2314:05+241m--1-1345.76516mSRPhone: 0484-2452340, Kerala
23CKIChalakkudy (3)X  14:19+2514:20+261m21-1330.5439mSRPh: 0480- 2701368, Kerala
24IJKIrinjalakkuda (2)X  14:29+2514:30+251m--1-1324.05318mSRKalletumkara, Kerala
25TCRThrissur (4)X  14:57+2215:00+223m21-1300.3526mSRThrissur Tel: 0487 2423150, Kerala
26WKIWadakkanchery (2)X  15:19+2015:20+201m21-1283.93440mSRWadackanchery, Kerala
27OTPOttappalam (2)  16:09+1216:10+141m11-1256.26330mSROttapalam, Kerala
28PGTPalakkad Junction (4)  16:40+1016:45+145m31-1224.74584mSRPalghat Tel: 0491 2555231, Kerala
29CBECoimbatore Main Junction (6)  18:00+1118:05+145m41-1169.071411mSRCoimbatore 641001, Tamil Nadu
30TUPTiruppur (2)X  18:48+1818:50+182m21-1118.450305mSRTiruppur. Ph:0421-2200450, Tamil Nadu
31EDErode Junction (4)  19:50+1120:00+2010m11-1068.567175mSRErode ph.no: 0424-2256111, Tamil Nadu
32SASalem Junction (6)X  20:55+1721:00+195m41-1006.753283mSRSalem, Tamil Nadu
33JTJJolarpettai Junction (5)X  23:15+1123:20+135m--1-886.659405mSRJolarpettai jtn. Ph No.04179-241221, Tamil Nadu
34KPDKatpadi Junction (5)  00:45+700:50+135m42-802.743213mSRVellore 632007. Phone No: 0416-2642628, Tamil Nadu
35PAKPakala Junction (2)X  02:19+2202:20+241m12-739.634371mSCRKavalivari Palle, Andhra Pradesh
36TPTYTirupati Main (5)X  03:35+1203:40+145m12-697.830150mSCRChittoor Distt, Andhra Pradesh
37RURenigunta Junction (5)  04:00+1404:20+2620m22-687.985113mSCRChittoor District, Andhra Pradesh
38KOUKoduru (2)  04:49+3904:50+411m--2-647.072215mSCRKadapa (YSR District), Andhra Pradesh
39RJPRazampeta (2)X  05:18+4105:20+402m--2-613.435144mSCRKadapa (YSR District), Andhra Pradesh
40NRENandalur  05:38+3605:40+372m--2-602.951143mSCRRayalaseema Region, Andhra Pradesh
41HXKadapa (3)  06:28+2406:30+292m32-562.462146mSCRCuddapah, Andhra Pradesh
42YAYerraguntla (2)  07:08+2807:10+292m12-523.335171mSCRKadapa / Cuddapah (YSR District), Andhra Pradesh
43KDPKondapuram (2)  08:18+1008:20+172m--2-483.473214mSCRKadapa (YSR District), Andhra Pradesh
44TUTadipatri (3)X08:43+2308:45+222m22-455.440243mSCRAnantapuram Dist, Andhra Pradesh
45GYGooty Junction (2)  09:58+2110:00+272m22-407.331370mSCRNH 7 Anantapur District, Andhra Pradesh
46GTLGuntakal Junction (6)X10:55+1411:15+3320m52-378.792453mSCRGuntakal. Tel: 08552-227131/32, Andhra Pradesh
47ADAdoni (4)  11:49+5111:50+521m32-326.742420mSCRAdoni Tel: 08512-252368, Andhra Pradesh
48MALMMantralayam Road (3)  12:49+4812:50+561m22-285.535335mSCRKurnool Tel: 08512-259830, Andhra Pradesh
49RCRaichur Junction (3)X  13:39+4213:40+1:031m22-257.073406mSCRRaichur, Karnataka
50YGYadgir (3)14:36+1:1714:38+1:432m22-188.513369mSCRYadgir, Karnataka
51WADIWadi Junction (4)X  17:35+117:40+125m42-149.460431mCRWadi, Karnataka
52GRGulbarga (4)  18:17+718:18+121m32-112.660458mCRGulbarga 585101, Karnataka
53SUR»Solapur (5)»X  20:10+3220:20+4010m420.059461mCRSolapur 413001, Maharashtra
54KWVKurduvadi Junction (4)X  21:41+2921:45+284m2279.072516mCRKurduvadi Dist-Solapur, Maharashtra
55DDDaund Junction (7)XO  23:15+2723:20+265m52187.060521mCRNew Daund Dist. Pune 413801, Maharashtra
56PUNEPune Junction (6)X00:35+2200:50+2815m43262.560556mCRPune 411001, Maharashtra
57LNLLonavala (3)XO  01:54+1901:55+211m23326.256623mCRLonavala 410401, Maharashtra
58KADKhandala (3)XT01:59-02:00-1m33329.934545mCR410301, Maharashtra
59KJTKarjat Junction (4)  02:44+1902:45+211m23354.85757mCRKarjat, Maharashtra
60KYNKalyan Junction (8)  03:34+1603:35+191m73401.76410mCRKalyan 421301, Maharashtra
61TNAThane (10)  03:54+2303:55+261m63421.94310mCRThane, Maharashtra
62DRMumbai Dadar Central (8)  04:29+1704:30+211m53446.1267mCRMumbai 400014, Maharashtra
63CSTM•Mumbai CST (18)•  04:50+13-113454.7-10mCRMumbai 400001, Maharashtra
Scroll to Top
Scroll to Bottom